KVTN/VTN METAR and TAF weather

Enter ICAO airport designator
Station Type Date Time Source
KVTN METAR 2019/06/19 00:52 UTC NOAA

KVTN 190052Z AUTO 14010KT 10SM CLR 22/11 A2993 RMK AO2 SLP121 T02220106


Station Type Date Time Source
KVTN Decoded METAR 2019/06/19 00:52 UTC NOAA

MILLER FIELD - VALENTINE, NE, NE, United States (KVTN) 42-52N 100-33W 788M
Jun 18, 2019 - 08:52 PM EDT / 2019.06.19 0052 UTC
Wind: from the SE (140 degrees) at 12 MPH (10 KT):0
Visibility: 10 mile(s):0
Sky conditions: clear
Temperature: 72.0 F (22.2 C)
Dew Point: 51.1 F (10.6 C)
Relative Humidity: 47%
Pressure (altimeter): 29.93 in. Hg (1013 hPa)
ob: KVTN 190052Z AUTO 14010KT 10SM CLR 22/11 A2993 RMK AO2 SLP121 T02220106
cycle: 1

Station Type Date Time Source
KVTN TAF 2019/06/18 18:24 UTC NOAA

TAF KVTN 181721Z 1818/1918 11008KT P6SM OVC050
FM182300 13008KT P6SM BKN100
FM190400 16005KT P6SM SCT150
FM191000 19004KT P6SM BKN150

Example: see airport list